sensor_id;sensor_type;location;lat;lon;timestamp;temperature;humidity
18597;DHT22;9428;50.950;6.912;2023-02-03T00:01:43;9.30;99.90
18597;DHT22;9428;50.950;6.912;2023-02-03T00:04:30;9.50;99.90
18597;DHT22;9428;50.950;6.912;2023-02-03T00:07:18;9.10;99.90
18597;DHT22;9428;50.950;6.912;2023-02-03T00:10:06;9.20;99.90
18597;DHT22;9428;50.950;6.912;2023-02-03T00:12:55;9.30;99.90
18597;DHT22;9428;50.950;6.912;2023-02-03T00:15:43;9.30;99.90
18597;DHT22;9428;50.950;6.912;2023-02-03T00:18:30;9.30;99.90
18597;DHT22;9428;50.950;6.912;2023-02-03T00:21:17;9.30;99.90
18597;DHT22;9428;50.950;6.912;2023-02-03T00:24:05;9.30;99.90
18597;DHT22;9428;50.950;6.912;2023-02-03T00:26:52;9.30;99.90
18597;DHT22;9428;50.950;6.912;2023-02-03T00:29:41;9.30;99.90
18597;DHT22;9428;50.950;6.912;2023-02-03T00:32:28;9.30;99.90
18597;DHT22;9428;50.950;6.912;2023-02-03T00:35:15;9.30;99.90
18597;DHT22;9428;50.950;6.912;2023-02-03T00:38:03;9.40;99.90
18597;DHT22;9428;50.950;6.912;2023-02-03T00:40:51;9.30;99.90
18597;DHT22;9428;50.950;6.912;2023-02-03T00:43:39;9.40;99.90
18597;DHT22;9428;50.950;6.912;2023-02-03T00:46:29;9.10;99.90
18597;DHT22;9428;50.950;6.912;2023-02-03T00:49:16;9.40;99.90
18597;DHT22;9428;50.950;6.912;2023-02-03T00:52:03;9.70;99.90
18597;DHT22;9428;50.950;6.912;2023-02-03T00:54:51;9.30;99.90
18597;DHT22;9428;50.950;6.912;2023-02-03T00:57:38;9.30;99.90
18597;DHT22;9428;50.950;6.912;2023-02-03T01:00:25;9.30;99.90
18597;DHT22;9428;50.950;6.912;2023-02-03T01:03:15;9.40;99.90
18597;DHT22;9428;50.950;6.912;2023-02-03T01:06:14;9.40;99.90
18597;DHT22;9428;50.950;6.912;2023-02-03T01:09:01;9.30;99.90
18597;DHT22;9428;50.950;6.912;2023-02-03T01:11:49;9.40;99.90
18597;DHT22;9428;50.950;6.912;2023-02-03T01:14:36;9.30;99.90
18597;DHT22;9428;50.950;6.912;2023-02-03T01:17:23;9.70;99.90
18597;DHT22;9428;50.950;6.912;2023-02-03T01:20:12;9.30;99.90
18597;DHT22;9428;50.950;6.912;2023-02-03T01:23:01;9.40;99.90
18597;DHT22;9428;50.950;6.912;2023-02-03T01:25:49;9.40;99.90
18597;DHT22;9428;50.950;6.912;2023-02-03T01:28:36;9.40;99.90
18597;DHT22;9428;50.950;6.912;2023-02-03T01:31:26;9.30;99.90
18597;DHT22;9428;50.950;6.912;2023-02-03T01:34:15;9.40;99.90
18597;DHT22;9428;50.950;6.912;2023-02-03T01:37:04;9.30;99.90
18597;DHT22;9428;50.950;6.912;2023-02-03T01:39:51;9.60;99.90
18597;DHT22;9428;50.950;6.912;2023-02-03T01:42:39;9.40;99.90
18597;DHT22;9428;50.950;6.912;2023-02-03T01:45:26;9.40;99.90
18597;DHT22;9428;50.950;6.912;2023-02-03T01:48:13;9.40;99.90
18597;DHT22;9428;50.950;6.912;2023-02-03T01:51:01;9.40;99.90
18597;DHT22;9428;50.950;6.912;2023-02-03T01:53:52;9.40;99.90
18597;DHT22;9428;50.950;6.912;2023-02-03T01:56:43;9.60;99.90
18597;DHT22;9428;50.950;6.912;2023-02-03T01:59:33;9.50;99.90
18597;DHT22;9428;50.950;6.912;2023-02-03T02:02:21;9.40;99.90
18597;DHT22;9428;50.950;6.912;2023-02-03T02:05:12;9.40;99.90
18597;DHT22;9428;50.950;6.912;2023-02-03T02:08:02;9.60;99.90
18597;DHT22;9428;50.950;6.912;2023-02-03T02:10:51;9.60;99.90
18597;DHT22;9428;50.950;6.912;2023-02-03T02:13:40;9.50;99.90
18597;DHT22;9428;50.950;6.912;2023-02-03T02:16:35;9.60;99.90
18597;DHT22;9428;50.950;6.912;2023-02-03T02:19:44;9.40;99.90
18597;DHT22;9428;50.950;6.912;2023-02-03T02:22:49;9.50;99.90
18597;DHT22;9428;50.950;6.912;2023-02-03T02:25:58;9.50;99.90
18597;DHT22;9428;50.950;6.912;2023-02-03T02:32:34;9.50;99.90
18597;DHT22;9428;50.950;6.912;2023-02-03T02:35:31;9.40;99.90
18597;DHT22;9428;50.950;6.912;2023-02-03T02:38:30;9.40;99.90
18597;DHT22;9428;50.950;6.912;2023-02-03T02:41:24;9.40;99.90
18597;DHT22;9428;50.950;6.912;2023-02-03T02:44:18;9.40;99.90
18597;DHT22;9428;50.950;6.912;2023-02-03T02:47:15;9.40;99.90
18597;DHT22;9428;50.950;6.912;2023-02-03T02:50:10;9.40;99.90
18597;DHT22;9428;50.950;6.912;2023-02-03T02:52:59;9.40;99.90
18597;DHT22;9428;50.950;6.912;2023-02-03T02:55:49;9.90;99.90
18597;DHT22;9428;50.950;6.912;2023-02-03T02:58:40;10.10;99.90
18597;DHT22;9428;50.950;6.912;2023-02-03T03:01:29;9.40;99.90
18597;DHT22;9428;50.950;6.912;2023-02-03T03:04:19;9.40;99.90
18597;DHT22;9428;50.950;6.912;2023-02-03T03:07:12;9.40;99.90
18597;DHT22;9428;50.950;6.912;2023-02-03T03:10:04;9.30;99.90
18597;DHT22;9428;50.950;6.912;2023-02-03T03:12:56;9.40;99.90
18597;DHT22;9428;50.950;6.912;2023-02-03T03:15:45;9.40;99.90
18597;DHT22;9428;50.950;6.912;2023-02-03T03:18:34;9.60;99.90
18597;DHT22;9428;50.950;6.912;2023-02-03T03:21:26;9.40;99.90
18597;DHT22;9428;50.950;6.912;2023-02-03T03:24:19;9.40;99.90
18597;DHT22;9428;50.950;6.912;2023-02-03T03:27:12;9.40;99.90
18597;DHT22;9428;50.950;6.912;2023-02-03T03:30:03;9.40;99.90
18597;DHT22;9428;50.950;6.912;2023-02-03T03:32:51;8.80;99.90
18597;DHT22;9428;50.950;6.912;2023-02-03T03:35:42;9.30;99.90
18597;DHT22;9428;50.950;6.912;2023-02-03T03:38:36;9.40;99.90
18597;DHT22;9428;50.950;6.912;2023-02-03T03:41:34;9.70;99.90
18597;DHT22;9428;50.950;6.912;2023-02-03T03:44:27;9.40;99.90
18597;DHT22;9428;50.950;6.912;2023-02-03T03:47:20;9.40;99.90
18597;DHT22;9428;50.950;6.912;2023-02-03T03:50:16;9.40;99.90
18597;DHT22;9428;50.950;6.912;2023-02-03T03:53:06;9.40;99.90
18597;DHT22;9428;50.950;6.912;2023-02-03T03:55:56;9.40;99.90
18597;DHT22;9428;50.950;6.912;2023-02-03T03:58:47;9.50;99.90
18597;DHT22;9428;50.950;6.912;2023-02-03T04:01:36;9.70;99.90
18597;DHT22;9428;50.950;6.912;2023-02-03T04:04:25;9.40;99.90
18597;DHT22;9428;50.950;6.912;2023-02-03T04:07:13;9.50;99.90
18597;DHT22;9428;50.950;6.912;2023-02-03T04:10:01;10.10;99.90
18597;DHT22;9428;50.950;6.912;2023-02-03T04:12:48;9.40;99.90
18597;DHT22;9428;50.950;6.912;2023-02-03T04:15:37;9.40;99.90
18597;DHT22;9428;50.950;6.912;2023-02-03T04:18:24;9.40;99.90
18597;DHT22;9428;50.950;6.912;2023-02-03T04:21:12;9.40;99.90
18597;DHT22;9428;50.950;6.912;2023-02-03T04:23:59;9.40;99.90
18597;DHT22;9428;50.950;6.912;2023-02-03T04:26:46;9.40;99.90
18597;DHT22;9428;50.950;6.912;2023-02-03T04:29:33;9.40;99.90
18597;DHT22;9428;50.950;6.912;2023-02-03T04:32:22;9.40;99.90
18597;DHT22;9428;50.950;6.912;2023-02-03T04:35:09;9.40;99.90
18597;DHT22;9428;50.950;6.912;2023-02-03T04:37:57;9.40;99.90
18597;DHT22;9428;50.950;6.912;2023-02-03T04:40:44;9.40;99.90
18597;DHT22;9428;50.950;6.912;2023-02-03T04:43:32;9.40;99.90
18597;DHT22;9428;50.950;6.912;2023-02-03T04:46:19;9.40;99.90
18597;DHT22;9428;50.950;6.912;2023-02-03T04:49:08;9.30;99.90
18597;DHT22;9428;50.950;6.912;2023-02-03T04:51:56;9.40;99.90
18597;DHT22;9428;50.950;6.912;2023-02-03T04:54:44;9.40;99.90
18597;DHT22;9428;50.950;6.912;2023-02-03T04:57:31;8.70;99.90
18597;DHT22;9428;50.950;6.912;2023-02-03T05:00:19;9.50;99.90
18597;DHT22;9428;50.950;6.912;2023-02-03T05:03:06;9.40;99.90
18597;DHT22;9428;50.950;6.912;2023-02-03T05:05:57;9.40;99.90
18597;DHT22;9428;50.950;6.912;2023-02-03T05:08:44;9.40;99.90
18597;DHT22;9428;50.950;6.912;2023-02-03T05:11:31;9.40;99.90
18597;DHT22;9428;50.950;6.912;2023-02-03T05:14:19;9.40;99.90
18597;DHT22;9428;50.950;6.912;2023-02-03T05:17:06;9.40;99.90
18597;DHT22;9428;50.950;6.912;2023-02-03T05:19:53;9.40;99.90
18597;DHT22;9428;50.950;6.912;2023-02-03T05:22:42;9.50;99.90
18597;DHT22;9428;50.950;6.912;2023-02-03T05:25:29;9.40;99.90
18597;DHT22;9428;50.950;6.912;2023-02-03T05:28:16;9.40;99.90
18597;DHT22;9428;50.950;6.912;2023-02-03T05:31:04;9.40;99.90
18597;DHT22;9428;50.950;6.912;2023-02-03T05:33:51;9.70;99.90
18597;DHT22;9428;50.950;6.912;2023-02-03T05:36:39;9.40;99.90
18597;DHT22;9428;50.950;6.912;2023-02-03T05:39:28;9.40;99.90
18597;DHT22;9428;50.950;6.912;2023-02-03T05:42:15;9.40;99.90
18597;DHT22;9428;50.950;6.912;2023-02-03T05:45:02;9.40;99.90
18597;DHT22;9428;50.950;6.912;2023-02-03T05:47:49;9.40;99.90
18597;DHT22;9428;50.950;6.912;2023-02-03T05:50:37;9.50;99.90
18597;DHT22;9428;50.950;6.912;2023-02-03T05:53:24;9.40;99.90
18597;DHT22;9428;50.950;6.912;2023-02-03T05:56:13;9.80;99.90
18597;DHT22;9428;50.950;6.912;2023-02-03T05:59:00;9.50;99.90
18597;DHT22;9428;50.950;6.912;2023-02-03T06:01:47;9.40;99.90
18597;DHT22;9428;50.950;6.912;2023-02-03T06:04:35;9.50;99.90
18597;DHT22;9428;50.950;6.912;2023-02-03T06:07:22;9.50;99.90
18597;DHT22;9428;50.950;6.912;2023-02-03T06:10:09;9.40;99.90
18597;DHT22;9428;50.950;6.912;2023-02-03T06:12:58;9.70;99.90
18597;DHT22;9428;50.950;6.912;2023-02-03T06:15:45;9.40;99.90
18597;DHT22;9428;50.950;6.912;2023-02-03T06:18:35;9.40;99.90
18597;DHT22;9428;50.950;6.912;2023-02-03T06:21:23;9.40;99.90
18597;DHT22;9428;50.950;6.912;2023-02-03T06:24:10;9.50;99.90
18597;DHT22;9428;50.950;6.912;2023-02-03T06:26:57;9.40;99.90
18597;DHT22;9428;50.950;6.912;2023-02-03T06:29:46;9.40;99.90
18597;DHT22;9428;50.950;6.912;2023-02-03T06:32:33;9.40;99.90
18597;DHT22;9428;50.950;6.912;2023-02-03T06:35:20;9.50;99.90
18597;DHT22;9428;50.950;6.912;2023-02-03T06:38:07;9.40;99.90
18597;DHT22;9428;50.950;6.912;2023-02-03T06:40:55;9.40;99.90
18597;DHT22;9428;50.950;6.912;2023-02-03T06:43:42;9.50;99.90
18597;DHT22;9428;50.950;6.912;2023-02-03T06:46:30;9.50;99.90
18597;DHT22;9428;50.950;6.912;2023-02-03T06:49:18;9.50;99.90
18597;DHT22;9428;50.950;6.912;2023-02-03T06:52:05;9.50;99.90
18597;DHT22;9428;50.950;6.912;2023-02-03T06:54:54;9.50;99.90
18597;DHT22;9428;50.950;6.912;2023-02-03T06:57:45;9.50;99.90
18597;DHT22;9428;50.950;6.912;2023-02-03T07:00:32;9.50;99.90
18597;DHT22;9428;50.950;6.912;2023-02-03T07:03:21;9.50;99.90
18597;DHT22;9428;50.950;6.912;2023-02-03T07:06:08;9.50;99.90
18597;DHT22;9428;50.950;6.912;2023-02-03T07:08:55;9.50;99.90
18597;DHT22;9428;50.950;6.912;2023-02-03T07:11:43;9.50;99.90
18597;DHT22;9428;50.950;6.912;2023-02-03T07:14:30;9.40;99.90
18597;DHT22;9428;50.950;6.912;2023-02-03T07:17:20;9.50;99.90
18597;DHT22;9428;50.950;6.912;2023-02-03T07:20:10;9.50;99.90
18597;DHT22;9428;50.950;6.912;2023-02-03T07:22:57;9.50;99.90
18597;DHT22;9428;50.950;6.912;2023-02-03T07:25:44;9.50;99.90
18597;DHT22;9428;50.950;6.912;2023-02-03T07:28:32;9.50;99.90
18597;DHT22;9428;50.950;6.912;2023-02-03T07:31:20;9.50;99.90
18597;DHT22;9428;50.950;6.912;2023-02-03T07:34:07;9.50;99.90
18597;DHT22;9428;50.950;6.912;2023-02-03T07:36:56;9.50;99.90
18597;DHT22;9428;50.950;6.912;2023-02-03T07:39:43;9.50;99.90
18597;DHT22;9428;50.950;6.912;2023-02-03T07:42:31;9.50;99.90
18597;DHT22;9428;50.950;6.912;2023-02-03T07:45:18;9.50;99.90
18597;DHT22;9428;50.950;6.912;2023-02-03T07:48:07;9.40;99.90
18597;DHT22;9428;50.950;6.912;2023-02-03T07:50:54;9.50;99.90
18597;DHT22;9428;50.950;6.912;2023-02-03T07:53:43;9.50;99.90
18597;DHT22;9428;50.950;6.912;2023-02-03T07:56:31;9.50;99.90
18597;DHT22;9428;50.950;6.912;2023-02-03T07:59:18;9.60;99.90
18597;DHT22;9428;50.950;6.912;2023-02-03T08:02:05;9.60;99.90
18597;DHT22;9428;50.950;6.912;2023-02-03T08:04:53;9.60;99.90
18597;DHT22;9428;50.950;6.912;2023-02-03T08:07:42;9.70;99.90
18597;DHT22;9428;50.950;6.912;2023-02-03T08:10:31;9.70;99.90
18597;DHT22;9428;50.950;6.912;2023-02-03T08:13:18;10.20;99.90
18597;DHT22;9428;50.950;6.912;2023-02-03T08:16:06;9.80;99.90
18597;DHT22;9428;50.950;6.912;2023-02-03T08:18:53;9.70;99.90
18597;DHT22;9428;50.950;6.912;2023-02-03T08:21:40;9.70;99.90
18597;DHT22;9428;50.950;6.912;2023-02-03T08:24:27;9.70;99.90
18597;DHT22;9428;50.950;6.912;2023-02-03T08:27:17;9.70;99.90
18597;DHT22;9428;50.950;6.912;2023-02-03T08:30:07;9.00;99.90
18597;DHT22;9428;50.950;6.912;2023-02-03T08:32:55;9.70;99.90
18597;DHT22;9428;50.950;6.912;2023-02-03T08:35:45;9.80;99.90
18597;DHT22;9428;50.950;6.912;2023-02-03T08:38:32;9.70;99.90
18597;DHT22;9428;50.950;6.912;2023-02-03T08:41:19;9.80;99.90
18597;DHT22;9428;50.950;6.912;2023-02-03T08:44:08;9.70;99.90
18597;DHT22;9428;50.950;6.912;2023-02-03T08:46:56;9.70;99.90
18597;DHT22;9428;50.950;6.912;2023-02-03T08:49:43;9.70;99.90
18597;DHT22;9428;50.950;6.912;2023-02-03T08:52:30;9.70;99.90
18597;DHT22;9428;50.950;6.912;2023-02-03T08:55:18;9.60;99.90
18597;DHT22;9428;50.950;6.912;2023-02-03T08:58:05;10.00;99.90
18597;DHT22;9428;50.950;6.912;2023-02-03T09:00:54;9.60;99.90
18597;DHT22;9428;50.950;6.912;2023-02-03T09:03:41;9.60;99.90
18597;DHT22;9428;50.950;6.912;2023-02-03T09:06:29;9.60;99.90
18597;DHT22;9428;50.950;6.912;2023-02-03T09:09:17;9.70;99.90
18597;DHT22;9428;50.950;6.912;2023-02-03T09:12:05;9.70;99.90
18597;DHT22;9428;50.950;6.912;2023-02-03T09:14:52;9.70;99.90
18597;DHT22;9428;50.950;6.912;2023-02-03T09:17:40;9.70;99.90
18597;DHT22;9428;50.950;6.912;2023-02-03T09:20:28;9.80;99.90
18597;DHT22;9428;50.950;6.912;2023-02-03T09:23:15;9.70;99.90
18597;DHT22;9428;50.950;6.912;2023-02-03T09:26:02;9.70;99.90
18597;DHT22;9428;50.950;6.912;2023-02-03T09:28:51;9.70;99.90
18597;DHT22;9428;50.950;6.912;2023-02-03T09:31:38;9.60;99.90
18597;DHT22;9428;50.950;6.912;2023-02-03T09:34:27;9.60;99.90
18597;DHT22;9428;50.950;6.912;2023-02-03T09:37:15;9.60;99.90
18597;DHT22;9428;50.950;6.912;2023-02-03T09:40:02;9.10;99.90
18597;DHT22;9428;50.950;6.912;2023-02-03T09:46:15;9.60;99.90
18597;DHT22;9428;50.950;6.912;2023-02-03T09:49:07;9.60;99.90
18597;DHT22;9428;50.950;6.912;2023-02-03T09:51:59;9.10;99.90
18597;DHT22;9428;50.950;6.912;2023-02-03T09:54:53;9.60;99.90
18597;DHT22;9428;50.950;6.912;2023-02-03T09:57:46;9.60;99.90
18597;DHT22;9428;50.950;6.912;2023-02-03T10:00:40;10.00;99.90
18597;DHT22;9428;50.950;6.912;2023-02-03T10:03:31;9.60;99.90
18597;DHT22;9428;50.950;6.912;2023-02-03T10:06:34;9.60;99.90
18597;DHT22;9428;50.950;6.912;2023-02-03T10:09:31;9.60;99.90
18597;DHT22;9428;50.950;6.912;2023-02-03T10:13:00;9.60;99.90
18597;DHT22;9428;50.950;6.912;2023-02-03T10:15:59;9.50;99.90
18597;DHT22;9428;50.950;6.912;2023-02-03T10:18:54;9.60;99.90
18597;DHT22;9428;50.950;6.912;2023-02-03T10:21:45;9.50;99.90
18597;DHT22;9428;50.950;6.912;2023-02-03T10:24:39;9.50;99.90
18597;DHT22;9428;50.950;6.912;2023-02-03T10:27:28;9.50;99.90
18597;DHT22;9428;50.950;6.912;2023-02-03T10:30:20;9.50;99.90
18597;DHT22;9428;50.950;6.912;2023-02-03T10:33:10;9.40;99.90
18597;DHT22;9428;50.950;6.912;2023-02-03T10:36:03;9.40;99.90
18597;DHT22;9428;50.950;6.912;2023-02-03T10:38:58;9.30;99.90
18597;DHT22;9428;50.950;6.912;2023-02-03T10:41:48;9.20;99.90
18597;DHT22;9428;50.950;6.912;2023-02-03T10:44:37;9.20;99.90
18597;DHT22;9428;50.950;6.912;2023-02-03T10:47:28;9.30;99.90
18597;DHT22;9428;50.950;6.912;2023-02-03T10:50:21;9.20;99.90
18597;DHT22;9428;50.950;6.912;2023-02-03T10:53:25;9.30;99.90
18597;DHT22;9428;50.950;6.912;2023-02-03T10:56:14;9.30;99.90
18597;DHT22;9428;50.950;6.912;2023-02-03T10:59:05;9.30;99.90
18597;DHT22;9428;50.950;6.912;2023-02-03T11:01:54;9.50;99.90
18597;DHT22;9428;50.950;6.912;2023-02-03T11:04:42;9.30;99.90
18597;DHT22;9428;50.950;6.912;2023-02-03T11:07:29;9.30;99.90
18597;DHT22;9428;50.950;6.912;2023-02-03T11:10:28;9.30;99.90
18597;DHT22;9428;50.950;6.912;2023-02-03T11:13:22;9.30;99.90
18597;DHT22;9428;50.950;6.912;2023-02-03T11:16:16;9.30;99.90
18597;DHT22;9428;50.950;6.912;2023-02-03T11:19:06;9.30;99.90
18597;DHT22;9428;50.950;6.912;2023-02-03T11:21:59;9.30;99.90
18597;DHT22;9428;50.950;6.912;2023-02-03T11:24:46;9.50;99.90
18597;DHT22;9428;50.950;6.912;2023-02-03T11:27:33;9.00;99.90
18597;DHT22;9428;50.950;6.912;2023-02-03T11:30:23;9.40;99.90
18597;DHT22;9428;50.950;6.912;2023-02-03T11:33:18;9.50;99.90
18597;DHT22;9428;50.950;6.912;2023-02-03T11:36:09;9.50;99.90
18597;DHT22;9428;50.950;6.912;2023-02-03T11:39:19;9.60;99.90
18597;DHT22;9428;50.950;6.912;2023-02-03T11:42:20;9.60;99.90
18597;DHT22;9428;50.950;6.912;2023-02-03T11:45:12;9.70;99.90
18597;DHT22;9428;50.950;6.912;2023-02-03T11:48:01;9.70;99.90
18597;DHT22;9428;50.950;6.912;2023-02-03T11:51:03;9.60;99.90
18597;DHT22;9428;50.950;6.912;2023-02-03T11:54:10;9.60;99.90
18597;DHT22;9428;50.950;6.912;2023-02-03T11:57:17;9.60;99.90
18597;DHT22;9428;50.950;6.912;2023-02-03T12:00:14;9.60;99.90
18597;DHT22;9428;50.950;6.912;2023-02-03T12:03:22;9.70;99.90
18597;DHT22;9428;50.950;6.912;2023-02-03T12:06:27;9.80;99.90
18597;DHT22;9428;50.950;6.912;2023-02-03T12:09:26;9.70;99.90
18597;DHT22;9428;50.950;6.912;2023-02-03T12:12:39;9.90;99.90
18597;DHT22;9428;50.950;6.912;2023-02-03T12:15:49;10.40;99.90
18597;DHT22;9428;50.950;6.912;2023-02-03T12:18:50;9.80;99.90
18597;DHT22;9428;50.950;6.912;2023-02-03T12:21:44;9.80;99.90
18597;DHT22;9428;50.950;6.912;2023-02-03T12:24:38;9.80;99.90
18597;DHT22;9428;50.950;6.912;2023-02-03T12:27:40;9.80;99.90
18597;DHT22;9428;50.950;6.912;2023-02-03T12:30:33;9.80;99.90
18597;DHT22;9428;50.950;6.912;2023-02-03T12:33:25;10.10;99.90
18597;DHT22;9428;50.950;6.912;2023-02-03T12:36:17;9.80;99.90
18597;DHT22;9428;50.950;6.912;2023-02-03T12:39:15;9.80;99.90
18597;DHT22;9428;50.950;6.912;2023-02-03T12:42:12;10.00;99.90
18597;DHT22;9428;50.950;6.912;2023-02-03T12:45:03;9.90;99.90
18597;DHT22;9428;50.950;6.912;2023-02-03T12:47:55;9.90;99.90
18597;DHT22;9428;50.950;6.912;2023-02-03T12:50:50;10.00;99.90
18597;DHT22;9428;50.950;6.912;2023-02-03T12:53:40;9.90;99.90
18597;DHT22;9428;50.950;6.912;2023-02-03T12:56:36;9.90;99.90
18597;DHT22;9428;50.950;6.912;2023-02-03T12:59:29;9.90;99.90
18597;DHT22;9428;50.950;6.912;2023-02-03T13:02:24;9.90;99.90
18597;DHT22;9428;50.950;6.912;2023-02-03T13:05:19;9.90;99.90
18597;DHT22;9428;50.950;6.912;2023-02-03T13:08:15;9.90;99.90
18597;DHT22;9428;50.950;6.912;2023-02-03T13:11:12;10.50;99.90
18597;DHT22;9428;50.950;6.912;2023-02-03T13:14:09;9.90;99.90
18597;DHT22;9428;50.950;6.912;2023-02-03T13:17:04;9.90;99.90
18597;DHT22;9428;50.950;6.912;2023-02-03T13:19:56;9.90;99.90
18597;DHT22;9428;50.950;6.912;2023-02-03T13:22:44;9.90;99.90
18597;DHT22;9428;50.950;6.912;2023-02-03T13:25:41;9.90;99.90
18597;DHT22;9428;50.950;6.912;2023-02-03T13:28:52;9.80;99.90
18597;DHT22;9428;50.950;6.912;2023-02-03T13:31:51;9.90;99.90
18597;DHT22;9428;50.950;6.912;2023-02-03T13:35:07;9.80;99.90
18597;DHT22;9428;50.950;6.912;2023-02-03T13:38:21;9.80;99.90
18597;DHT22;9428;50.950;6.912;2023-02-03T13:41:18;9.80;99.90
18597;DHT22;9428;50.950;6.912;2023-02-03T13:44:10;9.70;99.90
18597;DHT22;9428;50.950;6.912;2023-02-03T13:47:00;9.70;99.90
18597;DHT22;9428;50.950;6.912;2023-02-03T13:49:52;9.60;99.90
18597;DHT22;9428;50.950;6.912;2023-02-03T13:52:44;9.70;99.90
18597;DHT22;9428;50.950;6.912;2023-02-03T13:55:35;9.60;99.90
18597;DHT22;9428;50.950;6.912;2023-02-03T13:58:24;9.70;99.90
18597;DHT22;9428;50.950;6.912;2023-02-03T14:01:30;9.60;99.90
18597;DHT22;9428;50.950;6.912;2023-02-03T14:07:38;9.70;99.90
18597;DHT22;9428;50.950;6.912;2023-02-03T14:10:25;9.60;99.90
18597;DHT22;9428;50.950;6.912;2023-02-03T14:13:19;9.60;99.90
18597;DHT22;9428;50.950;6.912;2023-02-03T14:16:21;9.70;99.90
18597;DHT22;9428;50.950;6.912;2023-02-03T14:19:09;9.70;99.90
18597;DHT22;9428;50.950;6.912;2023-02-03T14:21:58;9.70;99.90
18597;DHT22;9428;50.950;6.912;2023-02-03T14:24:49;9.80;99.90
18597;DHT22;9428;50.950;6.912;2023-02-03T14:27:36;9.80;99.90
18597;DHT22;9428;50.950;6.912;2023-02-03T14:30:23;9.80;99.90
18597;DHT22;9428;50.950;6.912;2023-02-03T14:33:11;9.90;99.90
18597;DHT22;9428;50.950;6.912;2023-02-03T14:35:58;9.90;99.90
18597;DHT22;9428;50.950;6.912;2023-02-03T14:38:45;9.90;99.90
18597;DHT22;9428;50.950;6.912;2023-02-03T14:41:45;10.40;99.90
18597;DHT22;9428;50.950;6.912;2023-02-03T14:44:40;10.00;99.90
18597;DHT22;9428;50.950;6.912;2023-02-03T14:47:46;10.10;99.90
18597;DHT22;9428;50.950;6.912;2023-02-03T14:50:50;10.10;99.90
18597;DHT22;9428;50.950;6.912;2023-02-03T14:53:53;10.10;99.90
18597;DHT22;9428;50.950;6.912;2023-02-03T14:56:46;10.10;99.90
18597;DHT22;9428;50.950;6.912;2023-02-03T15:00:00;10.10;99.90
18597;DHT22;9428;50.950;6.912;2023-02-03T15:03:16;10.20;99.90
18597;DHT22;9428;50.950;6.912;2023-02-03T15:06:35;10.10;99.90
18597;DHT22;9428;50.950;6.912;2023-02-03T15:09:27;10.20;99.90
18597;DHT22;9428;50.950;6.912;2023-02-03T15:12:18;10.10;99.90
18597;DHT22;9428;50.950;6.912;2023-02-03T15:15:13;10.20;99.90
18597;DHT22;9428;50.950;6.912;2023-02-03T15:18:19;11.00;99.90
18597;DHT22;9428;50.950;6.912;2023-02-03T15:21:14;10.20;99.90
18597;DHT22;9428;50.950;6.912;2023-02-03T15:24:12;10.60;99.90
18597;DHT22;9428;50.950;6.912;2023-02-03T15:27:00;10.30;99.90
18597;DHT22;9428;50.950;6.912;2023-02-03T15:29:49;10.30;99.90
18597;DHT22;9428;50.950;6.912;2023-02-03T15:32:39;10.30;99.90
18597;DHT22;9428;50.950;6.912;2023-02-03T15:35:30;10.30;99.90
18597;DHT22;9428;50.950;6.912;2023-02-03T15:38:21;10.30;99.90
18597;DHT22;9428;50.950;6.912;2023-02-03T15:41:17;10.30;99.90
18597;DHT22;9428;50.950;6.912;2023-02-03T15:44:11;10.30;99.90
18597;DHT22;9428;50.950;6.912;2023-02-03T15:47:02;10.40;99.90
18597;DHT22;9428;50.950;6.912;2023-02-03T15:49:58;10.30;99.90
18597;DHT22;9428;50.950;6.912;2023-02-03T15:52:47;11.10;99.90
18597;DHT22;9428;50.950;6.912;2023-02-03T15:55:37;10.30;99.90
18597;DHT22;9428;50.950;6.912;2023-02-03T15:58:28;10.40;99.90
18597;DHT22;9428;50.950;6.912;2023-02-03T16:01:20;11.10;99.90
18597;DHT22;9428;50.950;6.912;2023-02-03T16:04:10;10.30;99.90
18597;DHT22;9428;50.950;6.912;2023-02-03T16:06:59;9.50;99.90
18597;DHT22;9428;50.950;6.912;2023-02-03T16:09:51;10.20;99.90
18597;DHT22;9428;50.950;6.912;2023-02-03T16:12:38;10.20;99.90
18597;DHT22;9428;50.950;6.912;2023-02-03T16:15:27;10.20;99.90
18597;DHT22;9428;50.950;6.912;2023-02-03T16:18:16;10.20;99.90
18597;DHT22;9428;50.950;6.912;2023-02-03T16:21:05;10.20;99.90
18597;DHT22;9428;50.950;6.912;2023-02-03T16:23:53;10.20;99.90
18597;DHT22;9428;50.950;6.912;2023-02-03T16:26:40;10.20;99.90
18597;DHT22;9428;50.950;6.912;2023-02-03T16:29:28;10.80;99.90
18597;DHT22;9428;50.950;6.912;2023-02-03T16:32:33;10.20;99.90
18597;DHT22;9428;50.950;6.912;2023-02-03T16:35:37;10.00;99.90
18597;DHT22;9428;50.950;6.912;2023-02-03T16:38:45;9.90;99.90
18597;DHT22;9428;50.950;6.912;2023-02-03T16:41:50;9.90;99.90
18597;DHT22;9428;50.950;6.912;2023-02-03T16:44:55;9.90;99.90
18597;DHT22;9428;50.950;6.912;2023-02-03T16:47:59;10.30;99.90
18597;DHT22;9428;50.950;6.912;2023-02-03T16:51:09;9.90;99.90
18597;DHT22;9428;50.950;6.912;2023-02-03T16:53:58;9.80;99.90
18597;DHT22;9428;50.950;6.912;2023-02-03T16:56:45;9.80;99.90
18597;DHT22;9428;50.950;6.912;2023-02-03T16:59:34;9.80;99.90
18597;DHT22;9428;50.950;6.912;2023-02-03T17:02:22;9.80;99.90
18597;DHT22;9428;50.950;6.912;2023-02-03T17:05:09;10.40;99.90
18597;DHT22;9428;50.950;6.912;2023-02-03T17:07:57;9.80;99.90
18597;DHT22;9428;50.950;6.912;2023-02-03T17:10:46;9.80;99.90
18597;DHT22;9428;50.950;6.912;2023-02-03T17:13:34;9.80;99.90
18597;DHT22;9428;50.950;6.912;2023-02-03T17:16:25;9.70;99.90
18597;DHT22;9428;50.950;6.912;2023-02-03T17:19:12;9.70;99.90
18597;DHT22;9428;50.950;6.912;2023-02-03T17:21:59;9.80;99.90
18597;DHT22;9428;50.950;6.912;2023-02-03T17:24:47;9.70;99.90
18597;DHT22;9428;50.950;6.912;2023-02-03T17:27:35;9.70;99.90
18597;DHT22;9428;50.950;6.912;2023-02-03T17:30:23;9.60;99.90
18597;DHT22;9428;50.950;6.912;2023-02-03T17:33:10;9.60;99.90
18597;DHT22;9428;50.950;6.912;2023-02-03T17:36:03;9.60;99.90
18597;DHT22;9428;50.950;6.912;2023-02-03T17:38:52;9.60;99.90
18597;DHT22;9428;50.950;6.912;2023-02-03T17:41:42;9.60;99.90
18597;DHT22;9428;50.950;6.912;2023-02-03T17:44:32;9.60;99.90
18597;DHT22;9428;50.950;6.912;2023-02-03T17:47:20;9.60;99.90
18597;DHT22;9428;50.950;6.912;2023-02-03T17:50:08;9.60;99.90
18597;DHT22;9428;50.950;6.912;2023-02-03T17:52:55;9.60;99.90
18597;DHT22;9428;50.950;6.912;2023-02-03T17:55:42;9.70;99.90
18597;DHT22;9428;50.950;6.912;2023-02-03T17:58:30;9.60;99.90
18597;DHT22;9428;50.950;6.912;2023-02-03T18:01:18;9.60;99.90
18597;DHT22;9428;50.950;6.912;2023-02-03T18:04:07;9.90;99.90
18597;DHT22;9428;50.950;6.912;2023-02-03T18:06:54;9.60;99.90
18597;DHT22;9428;50.950;6.912;2023-02-03T18:09:43;9.50;99.90
18597;DHT22;9428;50.950;6.912;2023-02-03T18:12:31;9.50;99.90
18597;DHT22;9428;50.950;6.912;2023-02-03T18:15:18;9.70;99.90
18597;DHT22;9428;50.950;6.912;2023-02-03T18:18:06;9.60;99.90
18597;DHT22;9428;50.950;6.912;2023-02-03T18:20:54;9.40;99.90
18597;DHT22;9428;50.950;6.912;2023-02-03T18:23:42;9.60;99.90
18597;DHT22;9428;50.950;6.912;2023-02-03T18:26:30;9.60;99.90
18597;DHT22;9428;50.950;6.912;2023-02-03T18:29:20;9.60;99.90
18597;DHT22;9428;50.950;6.912;2023-02-03T18:32:09;9.60;99.90
18597;DHT22;9428;50.950;6.912;2023-02-03T18:34:59;9.50;99.90
18597;DHT22;9428;50.950;6.912;2023-02-03T18:37:47;9.50;99.90
18597;DHT22;9428;50.950;6.912;2023-02-03T18:40:36;9.60;99.90
18597;DHT22;9428;50.950;6.912;2023-02-03T18:43:24;9.60;99.90
18597;DHT22;9428;50.950;6.912;2023-02-03T18:46:15;9.60;99.90